createdAt,value
2017-10-12T00:00:35.518Z,86.40
2017-10-12T00:03:04.701Z,86.30
2017-10-12T00:05:34.378Z,86.50
2017-10-12T00:08:03.549Z,86.10
2017-10-12T00:10:33.714Z,85.60
2017-10-12T00:13:03.129Z,85.60
2017-10-12T00:15:32.493Z,85.20
2017-10-12T00:18:01.670Z,85.10
2017-10-12T00:20:31.074Z,84.80
2017-10-12T00:23:00.274Z,85.30
2017-10-12T00:25:29.663Z,84.50
2017-10-12T00:28:00.162Z,84.00
2017-10-12T00:30:29.337Z,84.00
2017-10-12T00:32:58.712Z,84.00
2017-10-12T00:35:29.239Z,83.90
2017-10-12T00:37:59.559Z,83.90
2017-10-12T00:40:28.673Z,83.90
2017-10-12T00:42:58.391Z,83.80
2017-10-12T00:45:27.772Z,83.60
2017-10-12T00:47:57.151Z,83.80
2017-10-12T00:50:27.671Z,83.80
2017-10-12T00:52:57.072Z,83.60
2017-10-12T00:55:26.459Z,83.70
2017-10-12T00:57:55.904Z,83.60
2017-10-12T01:00:24.987Z,83.70
2017-10-12T01:02:53.802Z,83.60
2017-10-12T01:05:23.335Z,83.60
2017-10-12T01:07:52.070Z,83.30
2017-10-12T01:10:21.236Z,83.40
2017-10-12T01:12:51.062Z,83.40
2017-10-12T01:15:20.957Z,83.30
2017-10-12T01:17:50.342Z,83.40
2017-10-12T01:20:19.118Z,83.50
2017-10-12T01:22:47.604Z,84.20
2017-10-12T01:25:16.441Z,83.90
2017-10-12T01:27:45.501Z,84.00
2017-10-12T01:30:14.883Z,84.90
2017-10-12T01:32:43.566Z,84.20
2017-10-12T01:35:13.556Z,84.30
2017-10-12T01:37:42.584Z,84.30
2017-10-12T01:40:11.070Z,83.80
2017-10-12T01:42:39.389Z,83.50
2017-10-12T01:45:09.192Z,83.70
2017-10-12T01:47:38.018Z,83.70
2017-10-12T01:50:07.058Z,83.50
2017-10-12T01:52:35.537Z,83.30
2017-10-12T01:55:04.909Z,83.40
2017-10-12T01:57:34.597Z,83.40
2017-10-12T02:00:03.279Z,84.70
2017-10-12T02:02:32.457Z,85.40
2017-10-12T02:05:02.622Z,85.70
2017-10-12T02:07:31.453Z,85.70
2017-10-12T02:10:02.354Z,86.20
2017-10-12T02:12:31.699Z,86.10
2017-10-12T02:15:00.580Z,87.50
2017-10-12T02:17:29.953Z,87.50
2017-10-12T02:19:59.425Z,87.90
2017-10-12T02:22:28.595Z,88.80
2017-10-12T02:24:57.896Z,89.30
2017-10-12T02:27:28.186Z,90.20
2017-10-12T02:29:57.030Z,90.20
2017-10-12T02:32:26.973Z,90.20
2017-10-12T02:34:56.124Z,90.50
2017-10-12T02:37:25.308Z,90.80
2017-10-12T02:39:53.786Z,91.10
2017-10-12T02:42:23.345Z,90.90
2017-10-12T02:44:51.832Z,90.90
2017-10-12T02:47:21.008Z,90.50
2017-10-12T02:49:50.886Z,90.40
2017-10-12T02:52:20.063Z,90.30
2017-10-12T02:54:49.242Z,90.40
2017-10-12T02:57:19.540Z,90.00
2017-10-12T02:59:48.041Z,90.00
2017-10-12T03:02:17.219Z,89.20
2017-10-12T03:04:46.820Z,89.40
2017-10-12T03:07:16.006Z,89.00
2017-10-12T03:09:45.601Z,88.60
2017-10-12T03:12:14.807Z,88.40
2017-10-12T03:14:43.994Z,88.00
2017-10-12T03:17:12.483Z,87.80
2017-10-12T03:19:42.256Z,87.40
2017-10-12T03:22:12.188Z,87.60
2017-10-12T03:24:42.147Z,88.10
2017-10-12T03:27:11.991Z,88.10
2017-10-12T03:29:41.165Z,87.90
2017-10-12T03:32:10.356Z,88.00
2017-10-12T03:34:40.317Z,88.10
2017-10-12T03:37:09.305Z,88.00
2017-10-12T03:39:39.243Z,88.00
2017-10-12T03:42:08.797Z,87.90
2017-10-12T03:44:38.143Z,88.00
2017-10-12T03:47:07.325Z,87.80
2017-10-12T03:49:36.644Z,88.10
2017-10-12T03:52:05.640Z,88.30
2017-10-12T03:54:34.634Z,87.90
2017-10-12T03:57:04.109Z,88.30
2017-10-12T03:59:34.057Z,88.40
2017-10-12T04:02:03.996Z,88.40
2017-10-12T04:04:33.529Z,88.70
2017-10-12T04:07:02.521Z,88.80
2017-10-12T04:09:31.713Z,89.10
2017-10-12T04:12:00.921Z,89.20
2017-10-12T04:14:30.114Z,89.40
2017-10-12T04:17:00.071Z,89.00
2017-10-12T04:19:29.825Z,88.90
2017-10-12T04:22:00.837Z,88.90
2017-10-12T04:24:30.045Z,88.90
2017-10-12T04:26:59.223Z,88.80
2017-10-12T04:29:29.209Z,88.80
2017-10-12T04:31:59.874Z,89.60
2017-10-12T04:34:29.056Z,88.70
2017-10-12T04:36:59.765Z,88.70
2017-10-12T04:39:29.852Z,88.40
2017-10-12T04:41:59.050Z,88.40
2017-10-12T04:44:28.258Z,88.60
2017-10-12T04:46:59.325Z,88.60
2017-10-12T04:49:28.524Z,88.70
2017-10-12T04:51:57.712Z,88.90
2017-10-12T04:54:27.273Z,89.00
2017-10-12T04:56:56.244Z,88.90
2017-10-12T04:59:25.228Z,89.00
2017-10-12T05:01:54.429Z,89.20
2017-10-12T05:04:24.185Z,89.50
2017-10-12T05:06:53.176Z,89.50
2017-10-12T05:09:22.714Z,89.60
2017-10-12T05:11:51.896Z,89.70
2017-10-12T05:14:21.087Z,89.90
2017-10-12T05:16:51.388Z,89.90
2017-10-12T05:19:20.751Z,89.70
2017-10-12T05:21:50.445Z,89.90
2017-10-12T05:24:19.880Z,90.00
2017-10-12T05:26:49.087Z,90.00
2017-10-12T05:29:18.369Z,90.10
2017-10-12T05:31:47.567Z,90.00
2017-10-12T05:34:16.752Z,90.00
2017-10-12T05:36:45.969Z,90.10
2017-10-12T05:39:15.254Z,90.20
2017-10-12T05:41:44.442Z,90.20
2017-10-12T05:44:14.069Z,90.40
2017-10-12T05:46:44.356Z,90.50
2017-10-12T05:49:13.367Z,90.50
2017-10-12T05:51:42.349Z,90.50
2017-10-12T05:54:11.557Z,90.40
2017-10-12T05:56:40.742Z,90.50
2017-10-12T05:59:09.927Z,90.40
2017-10-12T06:01:40.917Z,90.30
2017-10-12T06:04:10.090Z,90.20
2017-10-12T06:06:39.270Z,90.10
2017-10-12T06:09:08.497Z,90.00
2017-10-12T06:11:37.661Z,90.10
2017-10-12T06:14:06.834Z,90.00
2017-10-12T06:16:36.313Z,89.90
2017-10-12T06:19:05.485Z,90.30
2017-10-12T06:21:34.662Z,90.00
2017-10-12T06:24:04.257Z,90.00
2017-10-12T06:26:33.462Z,90.00
2017-10-12T06:29:02.651Z,90.10
2017-10-12T06:31:31.849Z,90.00
2017-10-12T06:34:01.557Z,90.10
2017-10-12T06:36:31.525Z,89.90
2017-10-12T06:39:00.730Z,89.80
2017-10-12T06:41:29.921Z,89.50
2017-10-12T06:44:00.223Z,89.40
2017-10-12T06:46:30.215Z,88.60
2017-10-12T06:48:59.407Z,88.70
2017-10-12T06:51:28.632Z,88.80
2017-10-12T06:53:57.839Z,88.60
2017-10-12T06:56:27.035Z,88.40
2017-10-12T06:58:56.273Z,88.50
2017-10-12T07:01:25.465Z,88.30
2017-10-12T07:03:54.751Z,88.10
2017-10-12T07:06:23.927Z,88.00
2017-10-12T07:08:53.528Z,88.00
2017-10-12T07:11:22.717Z,87.70
2017-10-12T07:13:51.900Z,87.60
2017-10-12T07:16:21.103Z,86.70
2017-10-12T07:18:51.057Z,86.80
2017-10-12T07:21:20.125Z,86.80
2017-10-12T07:23:50.433Z,86.90
2017-10-12T07:26:19.427Z,86.90
2017-10-12T07:28:48.425Z,87.00
2017-10-12T07:31:17.622Z,86.80
2017-10-12T07:33:46.801Z,86.60
2017-10-12T07:36:15.991Z,86.80
2017-10-12T07:38:45.473Z,86.30
2017-10-12T07:41:14.651Z,86.60
2017-10-12T07:43:43.838Z,86.50
2017-10-12T07:46:14.130Z,85.90
2017-10-12T07:48:43.301Z,85.90
2017-10-12T07:51:12.489Z,84.90
2017-10-12T07:53:42.772Z,85.30
2017-10-12T07:56:11.957Z,85.30
2017-10-12T07:58:40.960Z,85.60
2017-10-12T08:01:10.430Z,85.20
2017-10-12T08:03:39.619Z,84.70
2017-10-12T08:06:08.826Z,85.10
2017-10-12T08:08:38.011Z,84.60
2017-10-12T08:11:07.188Z,84.30
2017-10-12T08:13:36.380Z,84.80
2017-10-12T08:16:07.014Z,85.10
2017-10-12T08:18:36.193Z,85.00
2017-10-12T08:21:05.379Z,85.40
2017-10-12T08:23:35.352Z,86.50
2017-10-12T08:26:04.521Z,86.30
2017-10-12T08:28:33.708Z,86.40
2017-10-12T08:31:03.089Z,86.50
2017-10-12T08:33:32.275Z,85.10
2017-10-12T08:36:01.467Z,84.90
2017-10-12T08:38:30.673Z,84.50
2017-10-12T08:41:00.634Z,82.30
2017-10-12T08:43:29.878Z,82.30
2017-10-12T08:45:59.072Z,82.80
2017-10-12T08:48:28.269Z,82.80
2017-10-12T08:50:57.447Z,82.30
2017-10-12T08:53:26.937Z,81.70
2017-10-12T08:55:56.109Z,82.60
2017-10-12T08:58:25.292Z,81.60
2017-10-12T09:00:54.495Z,79.90
2017-10-12T09:03:23.677Z,79.80
2017-10-12T09:05:52.861Z,80.10
2017-10-12T09:08:22.065Z,79.30
2017-10-12T09:10:51.253Z,78.70
2017-10-12T09:13:20.433Z,78.00
2017-10-12T09:15:50.716Z,78.80
2017-10-12T09:18:19.904Z,78.80
2017-10-12T09:20:49.103Z,76.70
2017-10-12T09:23:18.257Z,75.30
2017-10-12T09:25:46.742Z,73.80
2017-10-12T09:28:15.339Z,73.10
2017-10-12T09:30:45.030Z,73.50
2017-10-12T09:33:14.073Z,72.90
2017-10-12T09:35:42.577Z,72.00
2017-10-12T09:38:11.668Z,72.20
2017-10-12T09:40:40.705Z,72.10
2017-10-12T09:43:10.079Z,71.10
2017-10-12T09:45:39.503Z,71.50
2017-10-12T09:48:08.538Z,71.70
2017-10-12T09:50:37.925Z,71.70
2017-10-12T09:53:06.629Z,69.90
2017-10-12T09:55:35.324Z,71.00
2017-10-12T09:58:04.748Z,70.80
2017-10-12T10:00:34.155Z,69.40
2017-10-12T10:03:03.014Z,68.60
2017-10-12T10:05:33.168Z,71.20
2017-10-12T10:08:03.222Z,71.20
2017-10-12T10:10:32.590Z,70.20
2017-10-12T10:13:03.654Z,70.20
2017-10-12T10:15:34.481Z,67.10
2017-10-12T10:18:04.622Z,67.70
2017-10-12T10:20:34.781Z,68.00
2017-10-12T10:23:04.178Z,68.10
2017-10-12T10:25:34.330Z,66.10
2017-10-12T10:28:03.529Z,66.00
2017-10-12T10:30:32.724Z,65.90
2017-10-12T10:33:02.229Z,65.20
2017-10-12T10:35:32.204Z,64.20
2017-10-12T10:38:01.398Z,64.10
2017-10-12T10:40:30.817Z,63.60
2017-10-12T10:43:00.203Z,63.10
2017-10-12T10:45:30.387Z,65.30
2017-10-12T10:47:59.766Z,65.30
2017-10-12T10:50:29.156Z,64.50
2017-10-12T10:52:59.616Z,61.00
2017-10-12T10:55:28.817Z,61.00
2017-10-12T10:58:00.995Z,62.40
2017-10-12T11:00:30.948Z,63.30
2017-10-12T11:03:00.164Z,63.20
2017-10-12T11:05:29.916Z,64.10
2017-10-12T11:07:59.112Z,64.00
2017-10-12T11:10:29.923Z,64.30
2017-10-12T11:13:00.081Z,65.50
2017-10-12T11:15:29.466Z,65.40
2017-10-12T11:17:59.626Z,67.60
2017-10-12T11:20:29.322Z,67.50
2017-10-12T11:22:58.530Z,67.70
2017-10-12T11:25:28.510Z,66.30
2017-10-12T11:27:58.237Z,66.40
2017-10-12T11:30:27.625Z,65.50
2017-10-12T11:32:57.015Z,65.90
2017-10-12T11:35:26.682Z,63.00
2017-10-12T11:37:56.057Z,64.10
2017-10-12T11:40:25.433Z,62.90
2017-10-12T11:42:54.821Z,63.00
2017-10-12T11:45:24.193Z,64.00
2017-10-12T11:47:53.569Z,64.30
2017-10-12T11:50:23.169Z,65.00
2017-10-12T11:52:52.553Z,64.00
2017-10-12T11:55:21.766Z,64.80
2017-10-12T11:57:51.511Z,63.50
2017-10-12T12:00:20.894Z,63.50
2017-10-12T12:02:50.278Z,63.20
2017-10-12T12:05:20.446Z,63.30
2017-10-12T12:07:49.841Z,63.20
2017-10-12T12:10:19.827Z,63.70
2017-10-12T12:12:49.027Z,63.60
2017-10-12T12:15:18.405Z,62.90
2017-10-12T12:17:47.779Z,63.90
2017-10-12T12:20:17.180Z,61.70
2017-10-12T12:22:46.563Z,61.40
2017-10-12T12:25:15.751Z,62.20
2017-10-12T12:27:45.306Z,61.60
2017-10-12T12:30:14.738Z,62.20
2017-10-12T12:32:44.293Z,60.00
2017-10-12T12:35:14.453Z,62.90
2017-10-12T12:37:43.856Z,62.90
2017-10-12T12:40:13.315Z,60.40
2017-10-12T12:42:44.167Z,60.80
2017-10-12T12:45:13.538Z,60.80
2017-10-12T12:47:42.809Z,59.50
2017-10-12T12:50:14.028Z,60.00
2017-10-12T12:52:43.402Z,59.90
2017-10-12T12:55:13.702Z,59.30
2017-10-12T12:57:43.413Z,59.30
2017-10-12T13:00:12.773Z,59.60
2017-10-12T13:02:42.951Z,61.00
2017-10-12T13:05:12.356Z,61.00
2017-10-12T13:07:41.726Z,61.70
2017-10-12T13:10:11.618Z,60.50
2017-10-12T13:12:40.998Z,58.60
2017-10-12T13:15:10.376Z,60.20
2017-10-12T13:17:40.187Z,60.90
2017-10-12T13:20:09.562Z,60.70
2017-10-12T13:22:38.945Z,60.60
2017-10-12T13:25:09.385Z,59.30
2017-10-12T13:27:39.546Z,60.00
2017-10-12T13:30:08.937Z,60.00
2017-10-12T13:32:39.104Z,59.70
2017-10-12T13:35:08.487Z,60.10
2017-10-12T13:37:38.649Z,60.50
2017-10-12T13:40:08.390Z,60.40
2017-10-12T13:42:37.786Z,60.30
2017-10-12T13:45:07.182Z,58.90
2017-10-12T13:47:36.624Z,58.20
2017-10-12T13:50:06.011Z,56.50
2017-10-12T13:52:34.697Z,56.20
2017-10-12T13:55:03.899Z,55.80
2017-10-12T13:57:33.274Z,56.00
2017-10-12T14:00:02.306Z,56.80
2017-10-12T14:02:31.781Z,56.70
2017-10-12T14:05:01.178Z,56.70
2017-10-12T14:07:30.586Z,56.50
2017-10-12T14:10:00.139Z,57.20
2017-10-12T14:12:29.328Z,56.80
2017-10-12T14:14:58.512Z,57.00
2017-10-12T14:17:28.502Z,57.50
2017-10-12T14:19:58.123Z,57.50
2017-10-12T14:22:27.497Z,57.80
2017-10-12T14:24:56.903Z,57.60
2017-10-12T14:27:26.273Z,58.40
2017-10-12T14:29:55.666Z,58.20
2017-10-12T14:32:27.157Z,58.10
2017-10-12T14:34:56.542Z,58.60
2017-10-12T14:37:25.933Z,57.90
2017-10-12T14:39:55.348Z,58.30
2017-10-12T14:42:24.541Z,59.00
2017-10-12T14:44:54.691Z,58.00
2017-10-12T14:47:24.094Z,58.00
2017-10-12T14:49:53.556Z,58.00
2017-10-12T14:52:22.940Z,58.60
2017-10-12T14:54:52.701Z,58.80
2017-10-12T14:57:22.087Z,59.30
2017-10-12T14:59:51.258Z,59.00
2017-10-12T15:02:21.790Z,59.20
2017-10-12T15:04:50.977Z,59.10
2017-10-12T15:07:20.261Z,60.00
2017-10-12T15:09:49.658Z,60.40
2017-10-12T15:12:19.021Z,59.00
2017-10-12T15:14:48.410Z,57.70
2017-10-12T15:17:18.113Z,58.90
2017-10-12T15:19:47.498Z,59.10
2017-10-12T15:22:17.665Z,58.90
2017-10-12T15:24:47.422Z,58.70
2017-10-12T15:27:16.607Z,59.70
2017-10-12T15:29:45.802Z,59.90
2017-10-12T15:32:15.462Z,59.70
2017-10-12T15:34:44.856Z,60.80
2017-10-12T15:37:14.222Z,61.40
2017-10-12T15:39:43.878Z,61.40
2017-10-12T15:42:13.258Z,61.80
2017-10-12T15:44:42.630Z,60.50
2017-10-12T15:47:12.144Z,61.30
2017-10-12T15:49:41.562Z,61.50
2017-10-12T15:52:10.946Z,60.50
2017-10-12T15:54:40.702Z,61.80
2017-10-12T15:57:10.075Z,62.40
2017-10-12T15:59:40.233Z,64.10
2017-10-12T16:02:09.613Z,64.00
2017-10-12T16:04:39.782Z,65.30
2017-10-12T16:07:09.171Z,65.30
2017-10-12T16:09:38.562Z,65.60
2017-10-12T16:12:07.957Z,66.30
2017-10-12T16:14:37.398Z,67.00
2017-10-12T16:17:07.557Z,67.60
2017-10-12T16:19:37.740Z,67.70
2017-10-12T16:22:07.126Z,67.60
2017-10-12T16:24:36.518Z,68.20
2017-10-12T16:27:06.274Z,68.60
2017-10-12T16:29:35.708Z,68.80
2017-10-12T16:32:05.157Z,69.30
2017-10-12T16:34:35.308Z,70.30
2017-10-12T16:37:04.502Z,70.10
2017-10-12T16:39:34.487Z,72.00
2017-10-12T16:42:03.716Z,72.00
2017-10-12T16:44:33.112Z,72.60
2017-10-12T16:47:02.481Z,72.70
2017-10-12T16:49:31.718Z,73.30
2017-10-12T16:52:01.117Z,72.80
2017-10-12T16:54:31.274Z,74.70
2017-10-12T16:57:00.675Z,74.60
2017-10-12T16:59:30.133Z,73.90
2017-10-12T17:01:59.521Z,74.00
2017-10-12T17:04:29.260Z,74.30
2017-10-12T17:06:58.744Z,75.00
2017-10-12T17:09:28.124Z,75.50
2017-10-12T17:11:58.681Z,75.30
2017-10-12T17:14:27.946Z,75.30
2017-10-12T17:16:57.342Z,75.70
2017-10-12T17:19:27.671Z,76.10
2017-10-12T17:21:56.860Z,76.10
2017-10-12T17:24:26.258Z,76.80
2017-10-12T17:26:56.757Z,77.50
2017-10-12T17:29:26.147Z,77.50
2017-10-12T17:31:55.570Z,78.00
2017-10-12T17:34:25.318Z,78.30
2017-10-12T17:36:54.729Z,78.40
2017-10-12T17:39:24.354Z,78.40
2017-10-12T17:41:53.558Z,78.80
2017-10-12T17:44:22.957Z,79.30
2017-10-12T17:46:52.419Z,79.90
2017-10-12T17:49:22.715Z,80.70
2017-10-12T17:51:51.904Z,81.30
2017-10-12T17:54:36.150Z,82.30
2017-10-12T17:56:51.457Z,82.80
2017-10-12T17:59:20.633Z,82.60
2017-10-12T18:01:50.194Z,82.90
2017-10-12T18:04:49.171Z,83.30
2017-10-12T18:06:49.041Z,83.40
2017-10-12T18:09:18.418Z,83.50
2017-10-12T18:14:17.516Z,84.40
2017-10-12T18:16:46.895Z,84.60
2017-10-12T18:19:16.331Z,84.70
2017-10-12T18:21:47.335Z,85.00
2017-10-12T18:24:16.791Z,85.00
2017-10-12T18:26:46.182Z,85.40
2017-10-12T18:29:16.937Z,86.00
2017-10-12T18:31:46.313Z,86.00
2017-10-12T18:34:15.698Z,86.40
2017-10-12T18:36:45.869Z,87.20
2017-10-12T18:39:15.262Z,87.00
2017-10-12T18:41:45.433Z,87.50
2017-10-12T18:44:15.199Z,87.50
2017-10-12T18:46:45.354Z,87.40
2017-10-12T18:49:15.835Z,87.60
2017-10-12T18:51:45.218Z,87.50
2017-10-12T18:54:15.025Z,87.60
2017-10-12T18:56:45.316Z,87.70
2017-10-12T18:59:14.706Z,87.90
2017-10-12T19:01:44.094Z,88.20
2017-10-12T19:04:14.558Z,88.80
2017-10-12T19:06:43.949Z,88.70
2017-10-12T19:09:13.333Z,88.80
2017-10-12T19:11:42.989Z,88.90
2017-10-12T19:14:12.369Z,88.70
2017-10-12T19:16:41.766Z,88.80
2017-10-12T19:19:11.718Z,89.80
2017-10-12T19:21:41.057Z,89.10
2017-10-12T19:24:11.035Z,89.20
2017-10-12T19:26:40.427Z,89.10
2017-10-12T19:29:09.618Z,89.00
2017-10-12T19:31:38.302Z,88.80
2017-10-12T19:34:08.048Z,88.20
2017-10-12T19:36:37.280Z,88.20
2017-10-12T19:39:06.650Z,88.10
2017-10-12T19:41:36.824Z,88.20
2017-10-12T19:44:06.231Z,88.20
2017-10-12T19:46:35.613Z,88.10
2017-10-12T19:49:06.149Z,88.20
2017-10-12T19:51:36.310Z,88.90
2017-10-12T19:54:05.709Z,88.80
2017-10-12T19:56:35.469Z,88.80
2017-10-12T19:59:04.906Z,88.80
2017-10-12T20:01:34.308Z,88.30
2017-10-12T20:04:04.142Z,87.80
2017-10-12T20:06:33.526Z,87.50
2017-10-12T20:09:02.728Z,87.50
2017-10-12T20:11:32.139Z,87.70
2017-10-12T20:16:31.738Z,87.90
2017-10-12T20:19:01.149Z,87.90
2017-10-12T20:21:30.522Z,88.10
2017-10-12T20:26:29.404Z,88.30
2017-10-12T20:33:59.147Z,88.70
2017-10-12T20:36:28.566Z,88.80
2017-10-12T20:38:58.073Z,88.90
2017-10-12T20:41:27.857Z,89.10
2017-10-12T20:43:57.254Z,89.20
2017-10-12T20:46:26.652Z,89.10
2017-10-12T20:48:56.317Z,89.20
2017-10-12T20:51:26.482Z,89.30
2017-10-12T20:53:56.561Z,89.30
2017-10-12T20:56:26.121Z,89.40
2017-10-12T20:58:56.625Z,89.00
2017-10-12T21:01:25.999Z,89.00
2017-10-12T21:03:55.396Z,89.30
2017-10-12T21:06:24.807Z,90.00
2017-10-12T21:08:54.263Z,90.20
2017-10-12T21:11:23.669Z,90.20
2017-10-12T21:13:53.421Z,90.40
2017-10-12T21:16:22.813Z,90.30
2017-10-12T21:18:52.202Z,90.30
2017-10-12T21:21:21.964Z,90.30
2017-10-12T21:23:51.396Z,90.30
2017-10-12T21:26:21.057Z,90.30
2017-10-12T21:28:50.829Z,90.50
2017-10-12T21:31:20.227Z,90.60
2017-10-12T21:33:49.601Z,91.30
2017-10-12T21:36:19.293Z,91.50
2017-10-12T21:38:48.683Z,91.50
2017-10-12T21:41:18.073Z,91.60
2017-10-12T21:43:47.810Z,91.70
2017-10-12T21:46:17.194Z,91.60
2017-10-12T21:48:47.353Z,91.80
2017-10-12T21:51:17.093Z,91.70
2017-10-12T21:53:46.468Z,91.80
2017-10-12T21:56:15.871Z,92.00
2017-10-12T21:58:46.678Z,92.20
2017-10-12T22:01:16.049Z,92.10
2017-10-12T22:03:45.458Z,92.30
2017-10-12T22:06:15.177Z,92.50
2017-10-12T22:08:45.340Z,92.40
2017-10-12T22:11:14.725Z,92.40
2017-10-12T22:13:44.489Z,92.40
2017-10-12T22:16:13.905Z,92.30
2017-10-12T22:18:43.286Z,92.30
2017-10-12T22:21:12.954Z,92.60
2017-10-12T22:23:42.333Z,92.60
2017-10-12T22:26:11.717Z,92.60
2017-10-12T22:28:42.229Z,92.30
2017-10-12T22:31:11.679Z,92.30
2017-10-12T22:33:41.852Z,92.00
2017-10-12T22:36:11.561Z,92.00
2017-10-12T22:38:40.946Z,92.20
2017-10-12T22:41:10.762Z,91.30
2017-10-12T22:43:41.270Z,91.30
2017-10-12T22:46:10.652Z,91.30
2017-10-12T22:48:40.053Z,91.20
2017-10-12T22:51:10.022Z,91.30
2017-10-12T22:53:39.406Z,91.30
2017-10-12T22:56:08.791Z,91.20
2017-10-12T22:58:39.287Z,91.30
2017-10-12T23:01:08.701Z,91.80
2017-10-12T23:03:37.875Z,91.70
2017-10-12T23:06:07.629Z,91.70
2017-10-12T23:08:37.017Z,91.60
2017-10-12T23:11:06.396Z,91.70
2017-10-12T23:13:36.827Z,92.20
2017-10-12T23:16:05.998Z,91.90
2017-10-12T23:18:35.181Z,92.00
2017-10-12T23:21:05.265Z,92.20
2017-10-12T23:23:34.461Z,92.20
2017-10-12T23:26:03.847Z,92.30
2017-10-12T23:28:33.600Z,92.40
2017-10-12T23:31:02.983Z,92.30
2017-10-12T23:33:32.353Z,92.30
2017-10-12T23:36:02.049Z,92.40
2017-10-12T23:38:31.237Z,92.40
2017-10-12T23:41:00.729Z,92.50
2017-10-12T23:43:32.036Z,92.50
2017-10-12T23:46:01.401Z,92.50
2017-10-12T23:48:31.566Z,92.50
2017-10-12T23:51:01.312Z,92.50
2017-10-12T23:53:30.688Z,92.50
2017-10-12T23:56:00.090Z,92.50
2017-10-12T23:58:30.558Z,92.50
